Terminal Aerodrome Forecast
Issued by NWS

Home | Current Version | Previous Version | Text Only | Print | Product List | Glossary On
Versions: 1 2 3 4 5 6 7 8 9 10 11 12 13 14 15 16 17 18 19 20
000
FTUS46 KEKA 171749
TAFCEC
TAF
KCEC 171749Z 1718/1818 19012KT P6SM VCSH FEW060 OVC100
     FM172100 17020G30KT P6SM -RA OVC050 WS020/18045KT
     FM180000 17025G35KT 5SM -RA OVC035 WS020/18045KT
     FM180600 17032G42KT 5SM -RA BR OVC050
     FM181300 17032G42KT 4SM -RA BR OVC025=

USA.gov is the U.S. government's official web portal to all federal, state and local government web resources and services.